Map

Track Data

SID SEASON NUMBER BASIN SUBBASIN NAME ISO_TIME NATURE LAT LON WMO_WIND WMO_PRES WMO_AGENCY TRACK_TYPE DIST2LAND LANDFALL IFLAG USA_AGENCY USA_ATCF_ID USA_LAT USA_LON USA_RECORD USA_STATUS USA_WIND USA_PRES USA_SSHS USA_R34_NE USA_R34_SE USA_R34_SW USA_R34_NW USA_R50_NE USA_R50_SE USA_R50_SW USA_R50_NW USA_R64_NE USA_R64_SE USA_R64_SW USA_R64_NW USA_POCI USA_ROCI USA_RMW USA_EYE TOKYO_LAT TOKYO_LON TOKYO_GRADE TOKYO_WIND TOKYO_PRES TOKYO_R50_DIR TOKYO_R50_LONG TOKYO_R50_SHORT TOKYO_R30_DIR TOKYO_R30_LONG TOKYO_R30_SHORT TOKYO_LAND CMA_LAT CMA_LON CMA_CAT CMA_WIND CMA_PRES HKO_LAT HKO_LON HKO_CAT HKO_WIND HKO_PRES NEWDELHI_LAT NEWDELHI_LON NEWDELHI_GRADE NEWDELHI_WIND NEWDELHI_PRES NEWDELHI_CI NEWDELHI_DP NEWDELHI_POCI REUNION_LAT REUNION_LON REUNION_TYPE REUNION_WIND REUNION_PRES REUNION_TNUM REUNION_CI REUNION_RMW REUNION_R34_NE REUNION_R34_SE REUNION_R34_SW REUNION_R34_NW REUNION_R50_NE REUNION_R50_SE REUNION_R50_SW REUNION_R50_NW REUNION_R64_NE REUNION_R64_SE REUNION_R64_SW REUNION_R64_NW BOM_LAT BOM_LON BOM_TYPE BOM_WIND BOM_PRES BOM_TNUM BOM_CI BOM_RMW BOM_R34_NE BOM_R34_SE BOM_R34_SW BOM_R34_NW BOM_R50_NE BOM_R50_SE BOM_R50_SW BOM_R50_NW BOM_R64_NE BOM_R64_SE BOM_R64_SW BOM_R64_NW BOM_ROCI BOM_POCI BOM_EYE BOM_POS_METHOD BOM_PRES_METHOD NADI_LAT NADI_LON NADI_CAT NADI_WIND NADI_PRES WELLINGTON_LAT WELLINGTON_LON WELLINGTON_WIND WELLINGTON_PRES DS824_LAT DS824_LON DS824_STAGE DS824_WIND DS824_PRES TD9636_LAT TD9636_LON TD9636_STAGE TD9636_WIND TD9636_PRES TD9635_LAT TD9635_LON TD9635_WIND TD9635_PRES TD9635_ROCI NEUMANN_LAT NEUMANN_LON NEUMANN_CLASS NEUMANN_WIND NEUMANN_PRES MLC_LAT MLC_LON MLC_CLASS MLC_WIND MLC_PRES USA_GUST BOM_GUST BOM_GUST_PER REUNION_GUST REUNION_GUST_PER USA_SEAHGT USA_SEARAD_NE USA_SEARAD_SE USA_SEARAD_SW USA_SEARAD_NW STORM_SPEED STORM_DIR
1951105N08069 1951 23 NI AS NOT_NAMED 1951-04-14 18:00:00 TS 7.50000 69.2000 main 810 810 O________O____ jtwc_io IO011951 7.50000 69.2000 -1 7.50000 69.2000 TC 5 313
1951105N08069 1951 23 NI AS NOT_NAMED 1951-04-14 21:00:00 TS 7.66753 69.0200 main 825 825 P________P____ IO011951 7.66753 69.0200 -1 7.66753 69.0200 TC 4 316
1951105N08069 1951 23 NI AS NOT_NAMED 1951-04-15 00:00:00 TS 7.80000 68.9000 main 833 829 O________O____ jtwc_io IO011951 7.80000 68.9000 -1 7.80000 68.9000 TC 25 3 326
1951105N08069 1951 23 NI AS NOT_NAMED 1951-04-15 03:00:00 TS 7.87555 68.8800 main 829 829 P________PO___ IO011951 7.87249 68.8775 -1 7.87249 68.8775 TC 25 7.90000 68.9000 1 1 0
1951105N08069 1951 23 NI AS NOT_NAMED 1951-04-15 06:00:00 TS 7.90000 68.9000 main 829 829 O________OP___ jtwc_io IO011951 7.90000 68.9000 -1 7.90000 68.9000 TC 25 7.90000 68.9000 1 0 41
1951105N08069 1951 23 NI AS NOT_NAMED 1951-04-15 09:00:00 TS 7.90545 68.9000 main 829 829 P________PP___ IO011951 7.90750 68.9000 -1 7.90750 68.9000 TC 25 7.90000 68.9000 1 0 0
1951105N08069 1951 23 NI AS NOT_NAMED 1951-04-15 12:00:00 TS 7.90000 68.9000 main 829 829 O________OP___ jtwc_io IO011951 7.90000 68.9000 -1 7.90000 68.9000 TC 25 7.90000 68.9000 1 0 0
1951105N08069 1951 23 NI AS NOT_NAMED 1951-04-15 15:00:00 TS 7.90000 68.9000 main 829 829 P________PO___ IO011951 7.90000 68.9000 -1 7.90000 68.9000 TC 25 7.90000 68.9000 1 0 0
1951105N08069 1951 23 NI AS NOT_NAMED 1951-04-15 18:00:00 TS 7.90000 68.9000 main 829 829 O________OP___ jtwc_io IO011951 7.90000 68.9000 -1 7.90000 68.9000 TC 25 7.90000 68.9000 1 0 0
1951105N08069 1951 23 NI AS NOT_NAMED 1951-04-15 21:00:00 TS 7.90000 68.9000 main 829 829 P________PP___ IO011951 7.90000 68.9000 -1 7.90000 68.9000 TC 25 7.90000 68.9000 1 0 0
1951105N08069 1951 23 NI AS NOT_NAMED 1951-04-16 00:00:00 TS 7.90000 68.9000 main 829 829 O________OP___ jtwc_io IO011951 7.90000 68.9000 -1 7.90000 68.9000 TC 25 7.90000 68.9000 1 0 0
1951105N08069 1951 23 NI AS NOT_NAMED 1951-04-16 03:00:00 TS 7.90000 68.9000 main 829 829 P________PO___ IO011951 7.90000 68.9000 -1 7.90000 68.9000 TC 25 7.90000 68.9000 1 0 0
1951105N08069 1951 23 NI AS NOT_NAMED 1951-04-16 06:00:00 TS 7.90000 68.9000 main 829 829 O________OP___ jtwc_io IO011951 7.90000 68.9000 -1 7.90000 68.9000 TC 25 7.90000 68.9000 1 0 0
1951105N08069 1951 23 NI AS NOT_NAMED 1951-04-16 09:00:00 TS 7.90000 68.9000 main 829 829 P________PP___ IO011951 7.90000 68.9000 -1 7.90000 68.9000 TC 25 7.90000 68.9000 1 0 0
1951105N08069 1951 23 NI AS NOT_NAMED 1951-04-16 12:00:00 TS 7.90000 68.9000 main 829 829 O________OP___ jtwc_io IO011951 7.90000 68.9000 -1 7.90000 68.9000 TC 25 7.90000 68.9000 1 0 0
1951105N08069 1951 23 NI AS NOT_NAMED 1951-04-16 15:00:00 TS 7.90000 68.9000 main 829 829 P________PO___ IO011951 7.90000 68.9000 -1 7.90000 68.9000 TC 25 7.90000 68.9000 1 0 0
1951105N08069 1951 23 NI AS NOT_NAMED 1951-04-16 18:00:00 TS 7.90000 68.9000 main 829 829 O________OP___ jtwc_io IO011951 7.90000 68.9000 -1 7.90000 68.9000 TC 25 7.90000 68.9000 1 0 0
1951105N08069 1951 23 NI AS NOT_NAMED 1951-04-16 21:00:00 TS 7.90000 68.9000 main 829 829 P________PP___ IO011951 7.90000 68.9000 -1 7.90000 68.9000 TC 25 7.90000 68.9000 1 0 0
1951105N08069 1951 23 NI AS NOT_NAMED 1951-04-17 00:00:00 TS 7.90000 68.9000 main 829 829 O________OP___ jtwc_io IO011951 7.90000 68.9000 -1 7.90000 68.9000 TC 25 7.90000 68.9000 1 0 0
1951105N08069 1951 23 NI AS NOT_NAMED 1951-04-17 03:00:00 TS 7.90000 68.9000 main 829 829 P________PO___ IO011951 7.90000 68.9000 -1 7.90000 68.9000 TC 25 7.90000 68.9000 1 0 0
1951105N08069 1951 23 NI AS NOT_NAMED 1951-04-17 06:00:00 TS 7.90000 68.9000 main 829 829 O________OP___ jtwc_io IO011951 7.90000 68.9000 -1 7.90000 68.9000 TC 25 7.90000 68.9000 1 0 0
1951105N08069 1951 23 NI AS NOT_NAMED 1951-04-17 09:00:00 TS 7.90000 68.9000 main 829 829 P________PP___ IO011951 7.90000 68.9000 -1 7.90000 68.9000 TC 25 7.90000 68.9000 1 0 0
1951105N08069 1951 23 NI AS NOT_NAMED 1951-04-17 12:00:00 TS 7.90000 68.9000 main 829 829 O________OP___ jtwc_io IO011951 7.90000 68.9000 -1 7.90000 68.9000 TC 25 7.90000 68.9000 1 0 0
1951105N08069 1951 23 NI AS NOT_NAMED 1951-04-17 15:00:00 TS 7.90000 68.9000 main 829 829 P________PO___ IO011951 7.90000 68.9000 -1 7.90000 68.9000 TC 25 7.90000 68.9000 1 1 125
1951105N08069 1951 23 NI AS NOT_NAMED 1951-04-17 18:00:00 TS 7.86048 68.9537 main 820 820 O________OP___ jtwc_io IO011951 7.90000 68.9000 -1 7.90000 68.9000 TC 25 7.78145 69.0610 1 2 126
1951105N08069 1951 23 NI AS NOT_NAMED 1951-04-17 21:00:00 TS 7.80703 69.0240 main 823 823 P________PP___ IO011951 7.86998 68.9375 -1 7.86998 68.9375 TC 25 7.68113 69.1970 1 1 123
1951105N08069 1951 23 NI AS NOT_NAMED 1951-04-18 00:00:00 TS 7.83008 68.9949 main 823 820 O________OP___ jtwc_io IO011951 7.90000 68.9000 -1 7.90000 68.9000 TC 25 7.69025 69.1847 1 2 309
1951105N08069 1951 23 NI AS NOT_NAMED 1951-04-18 03:00:00 TS 7.94296 68.8526 main 829 829 P________PO___ IO011951 7.96445 68.8289 -1 7.96445 68.8289 TC 25 7.90000 68.9000 1 9 308
1951105N08069 1951 23 NI AS NOT_NAMED 1951-04-18 06:00:00 TS 8.35569 68.3220 main 856 856 O________OP___ jtwc_io IO011951 8.30000 68.4000 -1 8.30000 68.4000 TC 25 8.46707 68.1661 1 20 308
1951105N08069 1951 23 NI AS NOT_NAMED 1951-04-18 09:00:00 TS 9.16907 67.2673 main 912 912 P________PP___ IO011951 9.14087 67.3213 -1 9.14087 67.3213 TC 25 9.22546 67.1592 1 29 307
1951105N08069 1951 23 NI AS NOT_NAMED 1951-04-18 12:00:00 TS 10.0819 66.0074 main 1006 1006 O________OP___ jtwc_io IO011951 10.1000 66.0000 -1 10.1000 66.0000 TC 25 10.0458 66.0221 1 28 305
1951105N08069 1951 23 NI AS NOT_NAMED 1951-04-18 15:00:00 TS 10.7780 64.9080 main 1087 1044 P________PO___ IO011951 10.7670 64.9120 -1 10.7670 64.9120 TC 25 10.8000 64.9000 1 24 301
1951105N08069 1951 23 NI AS NOT_NAMED 1951-04-18 18:00:00 TS 11.3214 63.9005 main 1033 917 O________OP___ jtwc_io IO011951 11.3000 63.9000 -1 11.3000 63.9000 TC 25 11.3641 63.9016 1 22 298
1951105N08069 1951 23 NI AS NOT_NAMED 1951-04-18 21:00:00 TS 11.8194 62.8837 main 917 827 P________PP___ IO011951 11.8102 62.8452 -1 11.8102 62.8452 TC 25 11.8379 62.9607 1 20 296
1951105N08069 1951 23 NI AS NOT_NAMED 1951-04-19 00:00:00 TS 12.2059 62.0464 main 816 760 O________OP___ jtwc_io IO011951 12.2000 62.0000 -1 12.2000 62.0000 TC 25 12.2176 62.1393 1 15 296
1951105N08069 1951 23 NI AS NOT_NAMED 1951-04-19 03:00:00 TS 12.4680 61.5247 main 760 727 P________PO___ IO011951 12.4520 61.5371 -1 12.4520 61.5371 TC 25 12.5000 61.5000 1 9 298
1951105N08069 1951 23 NI AS NOT_NAMED 1951-04-19 06:00:00 TS 12.6279 61.2372 main 727 705 O________OP___ jtwc_io IO011951 12.6000 61.3000 -1 12.6000 61.3000 TC 25 12.6836 61.1116 1 6 298
1951105N08069 1951 23 NI AS NOT_NAMED 1951-04-19 09:00:00 TS 12.7318 61.0194 main 705 695 P________PP___ IO011951 12.7074 61.0774 -1 12.7074 61.0774 TC 30 12.7805 60.9033 1 4 297
1951105N08069 1951 23 NI AS NOT_NAMED 1951-04-19 12:00:00 TS 12.8124 60.8645 main 695 673 O________OP___ jtwc_io IO011951 12.8000 60.9000 -1 12.8000 60.9000 TC 35 12.8373 60.7934 1 4 302
1951105N08069 1951 23 NI AS NOT_NAMED 1951-04-19 15:00:00 TS 12.9283 60.7000 main 673 652 P________PO___ IO011951 12.9425 60.7000 -1 12.9425 60.7000 TC 35 12.9000 60.7000 2 4 307
1951105N08069 1951 23 NI AS NOT_NAMED 1951-04-19 18:00:00 TS 13.0812 60.5000 main 653 632 O________OP___ jtwc_io IO011951 13.1000 60.5000 -1 13.1000 60.5000 TC 35 13.0437 60.5000 2 5 309
1951105N08069 1951 23 NI AS NOT_NAMED 1951-04-19 21:00:00 TS 13.2383 60.3000 main 632 613 P________PP___ IO011951 13.2575 60.3000 -1 13.2575 60.3000 TC 35 13.1999 60.3000 2 5 308
1951105N08069 1951 23 NI AS NOT_NAMED 1951-04-20 00:00:00 TS 13.3854 60.1000 main 613 593 O________OP___ jtwc_io IO011951 13.4000 60.1000 -1 13.4000 60.1000 TC 35 13.3562 60.1000 2 5 304
1951105N08069 1951 23 NI AS NOT_NAMED 1951-04-20 03:00:00 TS 13.5050 59.9000 main 593 574 P________PO___ IO011951 13.5075 59.9000 -1 13.5075 59.9000 TC 35 13.5000 59.9000 3 4 299
1951105N08069 1951 23 NI AS NOT_NAMED 1951-04-20 06:00:00 TS 13.6034 59.6986 main 574 555 O________OP___ jtwc_io IO011951 13.6000 59.7000 -1 13.6000 59.7000 TC 35 13.6103 59.6958 3 4 297
1951105N08069 1951 23 NI AS NOT_NAMED 1951-04-20 09:00:00 TS 13.7025 59.4974 main 555 537 P________PP___ IO011951 13.7000 59.5000 -1 13.7000 59.5000 TC 35 13.7075 59.4923 3 4 297
1951105N08069 1951 23 NI AS NOT_NAMED 1951-04-20 12:00:00 TS 13.8003 59.2976 main 537 518 O________OP___ jtwc_io IO011951 13.8000 59.3000 -1 13.8000 59.3000 TC 35 13.8009 59.2927 3 4 296
1951105N08069 1951 23 NI AS NOT_NAMED 1951-04-20 15:00:00 TS 13.8950 59.1000 main 518 501 P________PO___ IO011951 13.8925 59.1000 -1 13.8925 59.1000 TC 35 13.9000 59.1000 3 4 298
1951105N08069 1951 23 NI AS NOT_NAMED 1951-04-20 18:00:00 TS 14.0086 58.9019 main 501 484 O________OP___ jtwc_io IO011951 14.0000 58.9000 -1 14.0000 58.9000 TC 35 14.0259 58.9057 3 5 303
1951105N08069 1951 23 NI AS NOT_NAMED 1951-04-20 21:00:00 TS 14.1525 58.6967 main 481 461 P________PP___ IO011951 14.1500 58.6850 -1 14.1500 58.6850 TC 30 14.1575 58.7201 3 5 308
1951105N08069 1951 23 NI AS NOT_NAMED 1951-04-21 00:00:00 TS 14.2951 58.5165 main 461 446 O________OP___ jtwc_io IO011951 14.3000 58.5000 -1 14.3000 58.5000 TC 25 14.2853 58.5494 3 4 311
1951105N08069 1951 23 NI AS NOT_NAMED 1951-04-21 03:00:00 TS 14.4100 58.3900 main 446 431 P________PO___ IO011951 14.4150 58.3850 -1 14.4150 58.3850 TC 25 14.4000 58.4000 1 3 313
1951105N08069 1951 23 NI AS NOT_NAMED 1951-04-21 06:00:00 TS 14.4978 58.2928 main 431 416 O________OP___ jtwc_io IO011951 14.5000 58.3000 -1 14.5000 58.3000 TC 25 14.4934 58.2783 1 2 308
1951105N08069 1951 23 NI AS NOT_NAMED 1951-04-21 09:00:00 TS 14.5575 58.1924 main 416 411 P________PP___ IO011951 14.5500 58.2000 -1 14.5500 58.2000 TC 25 14.5724 58.1774 1 2 301
1951105N08069 1951 23 NI AS NOT_NAMED 1951-04-21 12:00:00 TS 14.6134 58.0959 main 411 396 O________OP___ jtwc_io IO011951 14.6000 58.1000 -1 14.6000 58.1000 TC 25 14.6403 58.0877 1 2 308
1951105N08069 1951 23 NI AS NOT_NAMED 1951-04-21 15:00:00 TS 14.7000 58.0000 main 396 382 P________PO___ IO011951 14.7000 58.0000 -1 14.7000 58.0000 TC 25 14.7000 58.0000 1 3 312
1951105N08069 1951 23 NI AS NOT_NAMED 1951-04-21 18:00:00 TS 14.7818 57.9026 main 382 377 O________OP___ jtwc_io IO011951 14.8000 57.9000 -1 14.8000 57.9000 TC 25 14.7544 57.9066 1 2 306
1951105N08069 1951 23 NI AS NOT_NAMED 1951-04-21 21:00:00 TS 14.8379 57.8032 main 377 363 P________PP___ IO011951 14.8625 57.8000 -1 14.8625 57.8000 TC 25 14.8051 57.8076 1 2 296
1951105N08069 1951 23 NI AS NOT_NAMED 1951-04-22 00:00:00 TS 14.8766 57.7024 main 363 355 O________OP___ jtwc_io IO011951 14.9000 57.7000 -1 14.9000 57.7000 TC 25 14.8532 57.7047 1 2 288
1951105N08069 1951 23 NI AS NOT_NAMED 1951-04-22 03:00:00 NR 14.9000 57.6000 main 355 __________O___ IO011951 -1 TC 14.9000 57.6000 1 2 284

About IBTrACS Database

This database is a web-friendly format of International Best Track Archive for Climate Stewardship (IBTrACS), a global best track data archive curated by NOAA dating back to 1842.

Updated: 2021-10-21